sensor_id;sensor_type;location;lat;lon;timestamp;pressure;altitude;pressure_sealevel;temperature;humidity
6345;BME280;3205;42.666;23.264;2023-03-05T00:01:24;93901.00;;;7.63;100.00
6345;BME280;3205;42.666;23.264;2023-03-05T00:03:51;93899.28;;;7.67;100.00
6345;BME280;3205;42.666;23.264;2023-03-05T00:06:17;93896.88;;;7.62;100.00
6345;BME280;3205;42.666;23.264;2023-03-05T00:08:44;93889.53;;;7.68;100.00
6345;BME280;3205;42.666;23.264;2023-03-05T00:11:11;93892.16;;;7.68;100.00
6345;BME280;3205;42.666;23.264;2023-03-05T00:13:39;93888.75;;;7.67;100.00
6345;BME280;3205;42.666;23.264;2023-03-05T00:16:07;93886.03;;;7.76;100.00
6345;BME280;3205;42.666;23.264;2023-03-05T00:18:34;93894.25;;;7.62;100.00
6345;BME280;3205;42.666;23.264;2023-03-05T00:21:00;93878.13;;;7.64;100.00
6345;BME280;3205;42.666;23.264;2023-03-05T00:23:27;93878.56;;;7.66;100.00
6345;BME280;3205;42.666;23.264;2023-03-05T00:25:53;93887.97;;;7.67;100.00
6345;BME280;3205;42.666;23.264;2023-03-05T00:28:19;93879.09;;;7.59;100.00
6345;BME280;3205;42.666;23.264;2023-03-05T00:30:46;93879.00;;;7.68;100.00
6345;BME280;3205;42.666;23.264;2023-03-05T00:33:13;93877.47;;;7.67;100.00
6345;BME280;3205;42.666;23.264;2023-03-05T00:35:40;93877.25;;;7.72;100.00
6345;BME280;3205;42.666;23.264;2023-03-05T00:38:06;93874.91;;;7.58;100.00
6345;BME280;3205;42.666;23.264;2023-03-05T00:40:35;93875.50;;;7.64;100.00
6345;BME280;3205;42.666;23.264;2023-03-05T00:43:01;93870.56;;;7.62;100.00
6345;BME280;3205;42.666;23.264;2023-03-05T00:45:27;93873.38;;;7.57;100.00
6345;BME280;3205;42.666;23.264;2023-03-05T00:47:54;93865.06;;;7.55;100.00
6345;BME280;3205;42.666;23.264;2023-03-05T00:50:20;93871.41;;;7.54;100.00
6345;BME280;3205;42.666;23.264;2023-03-05T00:52:46;93864.63;;;7.53;100.00
6345;BME280;3205;42.666;23.264;2023-03-05T00:55:13;93862.97;;;7.49;100.00
6345;BME280;3205;42.666;23.264;2023-03-05T00:57:39;93859.69;;;7.52;100.00
6345;BME280;3205;42.666;23.264;2023-03-05T01:00:06;93860.44;;;7.52;100.00
6345;BME280;3205;42.666;23.264;2023-03-05T01:02:32;93859.97;;;7.38;100.00
6345;BME280;3205;42.666;23.264;2023-03-05T01:04:58;93852.09;;;7.38;100.00
6345;BME280;3205;42.666;23.264;2023-03-05T01:07:25;93862.28;;;7.40;100.00
6345;BME280;3205;42.666;23.264;2023-03-05T01:09:51;93859.84;;;7.35;100.00
6345;BME280;3205;42.666;23.264;2023-03-05T01:12:17;93861.59;;;7.31;100.00
6345;BME280;3205;42.666;23.264;2023-03-05T01:14:44;93854.69;;;7.27;100.00
6345;BME280;3205;42.666;23.264;2023-03-05T01:17:10;93852.81;;;7.27;100.00
6345;BME280;3205;42.666;23.264;2023-03-05T01:19:36;93854.03;;;7.30;100.00
6345;BME280;3205;42.666;23.264;2023-03-05T01:22:02;93851.22;;;7.35;100.00
6345;BME280;3205;42.666;23.264;2023-03-05T01:24:30;93848.38;;;7.39;100.00
6345;BME280;3205;42.666;23.264;2023-03-05T01:26:56;93849.78;;;7.37;100.00
6345;BME280;3205;42.666;23.264;2023-03-05T01:29:22;93843.09;;;7.28;100.00
6345;BME280;3205;42.666;23.264;2023-03-05T01:31:49;93842.00;;;7.29;100.00
6345;BME280;3205;42.666;23.264;2023-03-05T01:34:15;93842.13;;;7.32;100.00
6345;BME280;3205;42.666;23.264;2023-03-05T01:36:43;93838.06;;;7.35;100.00
6345;BME280;3205;42.666;23.264;2023-03-05T01:39:09;93836.75;;;7.29;100.00
6345;BME280;3205;42.666;23.264;2023-03-05T01:41:36;93837.84;;;7.28;100.00
6345;BME280;3205;42.666;23.264;2023-03-05T01:44:02;93834.06;;;7.17;100.00
6345;BME280;3205;42.666;23.264;2023-03-05T01:46:31;93833.41;;;7.20;100.00
6345;BME280;3205;42.666;23.264;2023-03-05T01:49:14;93839.25;;;7.25;100.00
6345;BME280;3205;42.666;23.264;2023-03-05T01:51:47;93833.22;;;7.25;100.00
6345;BME280;3205;42.666;23.264;2023-03-05T01:54:18;93836.06;;;7.20;100.00
6345;BME280;3205;42.666;23.264;2023-03-05T01:56:48;93834.19;;;7.20;100.00
6345;BME280;3205;42.666;23.264;2023-03-05T01:59:15;93832.84;;;7.14;100.00
6345;BME280;3205;42.666;23.264;2023-03-05T02:01:45;93841.31;;;7.20;100.00
6345;BME280;3205;42.666;23.264;2023-03-05T02:04:15;93836.06;;;7.20;100.00
6345;BME280;3205;42.666;23.264;2023-03-05T02:06:42;93834.91;;;7.09;100.00
6345;BME280;3205;42.666;23.264;2023-03-05T02:09:10;93832.50;;;7.16;100.00
6345;BME280;3205;42.666;23.264;2023-03-05T02:11:38;93832.44;;;7.24;100.00
6345;BME280;3205;42.666;23.264;2023-03-05T02:14:05;93837.72;;;7.24;100.00
6345;BME280;3205;42.666;23.264;2023-03-05T02:16:33;93838.22;;;7.18;100.00
6345;BME280;3205;42.666;23.264;2023-03-05T02:19:01;93849.81;;;7.17;100.00
6345;BME280;3205;42.666;23.264;2023-03-05T02:21:36;93844.38;;;7.22;100.00
6345;BME280;3205;42.666;23.264;2023-03-05T02:24:02;93842.72;;;7.17;100.00
6345;BME280;3205;42.666;23.264;2023-03-05T02:26:29;93843.03;;;7.16;100.00
6345;BME280;3205;42.666;23.264;2023-03-05T02:28:57;93847.44;;;7.24;100.00
6345;BME280;3205;42.666;23.264;2023-03-05T02:31:28;93850.28;;;7.19;100.00
6345;BME280;3205;42.666;23.264;2023-03-05T02:33:55;93851.34;;;7.06;100.00
6345;BME280;3205;42.666;23.264;2023-03-05T02:36:22;93854.66;;;7.15;100.00
6345;BME280;3205;42.666;23.264;2023-03-05T02:38:49;93855.53;;;7.19;100.00
6345;BME280;3205;42.666;23.264;2023-03-05T02:41:18;93843.47;;;7.18;100.00
6345;BME280;3205;42.666;23.264;2023-03-05T02:43:44;93852.78;;;7.15;100.00
6345;BME280;3205;42.666;23.264;2023-03-05T02:46:10;93850.66;;;7.09;100.00
6345;BME280;3205;42.666;23.264;2023-03-05T02:48:36;93855.91;;;7.09;100.00
6345;BME280;3205;42.666;23.264;2023-03-05T02:51:04;93851.25;;;7.14;100.00
6345;BME280;3205;42.666;23.264;2023-03-05T02:53:31;93849.28;;;7.11;100.00
6345;BME280;3205;42.666;23.264;2023-03-05T02:55:58;93856.03;;;7.12;100.00
6345;BME280;3205;42.666;23.264;2023-03-05T02:58:24;93850.78;;;7.12;100.00
6345;BME280;3205;42.666;23.264;2023-03-05T03:00:50;93853.16;;;7.05;100.00
6345;BME280;3205;42.666;23.264;2023-03-05T03:03:16;93858.75;;;7.04;100.00
6345;BME280;3205;42.666;23.264;2023-03-05T03:05:42;93853.50;;;7.04;100.00
6345;BME280;3205;42.666;23.264;2023-03-05T03:08:09;93851.97;;;7.03;100.00
6345;BME280;3205;42.666;23.264;2023-03-05T03:10:35;93857.09;;;6.99;100.00
6345;BME280;3205;42.666;23.264;2023-03-05T03:13:05;93861.84;;;7.06;100.00
6345;BME280;3205;42.666;23.264;2023-03-05T03:15:31;93860.06;;;6.98;100.00
6345;BME280;3205;42.666;23.264;2023-03-05T03:17:57;93857.16;;;6.91;100.00
6345;BME280;3205;42.666;23.264;2023-03-05T03:20:23;93859.03;;;6.90;100.00
6345;BME280;3205;42.666;23.264;2023-03-05T03:22:49;93863.50;;;6.90;100.00
6345;BME280;3205;42.666;23.264;2023-03-05T03:25:17;93861.47;;;6.95;100.00
6345;BME280;3205;42.666;23.264;2023-03-05T03:27:46;93862.88;;;6.93;100.00
6345;BME280;3205;42.666;23.264;2023-03-05T03:30:14;93863.22;;;6.91;100.00
6345;BME280;3205;42.666;23.264;2023-03-05T03:32:40;93856.91;;;6.84;100.00
6345;BME280;3205;42.666;23.264;2023-03-05T03:35:07;93864.47;;;6.85;100.00
6345;BME280;3205;42.666;23.264;2023-03-05T03:37:34;93861.84;;;6.85;100.00
6345;BME280;3205;42.666;23.264;2023-03-05T03:40:00;93860.25;;;6.93;100.00
6345;BME280;3205;42.666;23.264;2023-03-05T03:42:26;93858.91;;;6.87;100.00
6345;BME280;3205;42.666;23.264;2023-03-05T03:44:52;93867.09;;;6.85;100.00
6345;BME280;3205;42.666;23.264;2023-03-05T03:47:18;93864.59;;;6.89;100.00
6345;BME280;3205;42.666;23.264;2023-03-05T03:49:45;93873.00;;;6.82;100.00
6345;BME280;3205;42.666;23.264;2023-03-05T03:52:11;93873.50;;;6.76;100.00
6345;BME280;3205;42.666;23.264;2023-03-05T03:54:37;93876.13;;;6.76;100.00
6345;BME280;3205;42.666;23.264;2023-03-05T03:57:03;93869.34;;;6.75;100.00
6345;BME280;3205;42.666;23.264;2023-03-05T03:59:30;93869.81;;;6.77;100.00
6345;BME280;3205;42.666;23.264;2023-03-05T04:01:56;93870.00;;;6.72;100.00
6345;BME280;3205;42.666;23.264;2023-03-05T04:04:23;93866.16;;;6.69;100.00
6345;BME280;3205;42.666;23.264;2023-03-05T04:06:50;93869.09;;;6.68;100.00
6345;BME280;3205;42.666;23.264;2023-03-05T04:09:16;93867.56;;;6.67;100.00
6345;BME280;3205;42.666;23.264;2023-03-05T04:11:42;93878.84;;;6.67;100.00
6345;BME280;3205;42.666;23.264;2023-03-05T04:14:09;93874.66;;;6.66;100.00
6345;BME280;3205;42.666;23.264;2023-03-05T04:16:36;93873.38;;;6.72;100.00
6345;BME280;3205;42.666;23.264;2023-03-05T04:19:02;93874.66;;;6.66;100.00
6345;BME280;3205;42.666;23.264;2023-03-05T04:21:29;93880.88;;;6.62;100.00
6345;BME280;3205;42.666;23.264;2023-03-05T04:23:55;93873.84;;;6.54;100.00
6345;BME280;3205;42.666;23.264;2023-03-05T04:26:21;93877.34;;;6.58;100.00
6345;BME280;3205;42.666;23.264;2023-03-05T04:28:47;93872.31;;;6.53;100.00
6345;BME280;3205;42.666;23.264;2023-03-05T04:31:13;93879.25;;;6.49;100.00
6345;BME280;3205;42.666;23.264;2023-03-05T04:33:40;93867.06;;;6.53;100.00
6345;BME280;3205;42.666;23.264;2023-03-05T04:36:06;93874.66;;;6.46;100.00
6345;BME280;3205;42.666;23.264;2023-03-05T04:38:33;93870.63;;;6.49;100.00
6345;BME280;3205;42.666;23.264;2023-03-05T04:40:59;93869.72;;;6.45;100.00
6345;BME280;3205;42.666;23.264;2023-03-05T04:43:25;93870.16;;;6.47;100.00
6345;BME280;3205;42.666;23.264;2023-03-05T04:45:53;93868.75;;;6.49;100.00
6345;BME280;3205;42.666;23.264;2023-03-05T04:48:20;93863.22;;;6.51;100.00
6345;BME280;3205;42.666;23.264;2023-03-05T04:50:46;93866.72;;;6.55;100.00
6345;BME280;3205;42.666;23.264;2023-03-05T04:53:12;93861.81;;;6.53;100.00
6345;BME280;3205;42.666;23.264;2023-03-05T04:55:39;93864.09;;;6.55;100.00
6345;BME280;3205;42.666;23.264;2023-03-05T04:58:05;93857.63;;;6.52;100.00
6345;BME280;3205;42.666;23.264;2023-03-05T05:00:31;93858.09;;;6.54;100.00
6345;BME280;3205;42.666;23.264;2023-03-05T05:02:57;93868.00;;;6.49;100.00
6345;BME280;3205;42.666;23.264;2023-03-05T05:05:27;93859.94;;;6.54;100.00
6345;BME280;3205;42.666;23.264;2023-03-05T05:07:53;93866.78;;;6.46;100.00
6345;BME280;3205;42.666;23.264;2023-03-05T05:10:20;93869.84;;;6.48;100.00
6345;BME280;3205;42.666;23.264;2023-03-05T05:12:47;93870.31;;;6.50;100.00
6345;BME280;3205;42.666;23.264;2023-03-05T05:15:13;93866.25;;;6.53;100.00
6345;BME280;3205;42.666;23.264;2023-03-05T05:17:41;93875.94;;;6.61;100.00
6345;BME280;3205;42.666;23.264;2023-03-05T05:20:10;93875.63;;;6.62;100.00
6345;BME280;3205;42.666;23.264;2023-03-05T05:22:37;93868.66;;;6.66;100.00
6345;BME280;3205;42.666;23.264;2023-03-05T05:25:03;93873.91;;;6.66;100.00
6345;BME280;3205;42.666;23.264;2023-03-05T05:27:30;93879.59;;;6.68;100.00
6345;BME280;3205;42.666;23.264;2023-03-05T05:29:56;93886.47;;;6.81;100.00
6345;BME280;3205;42.666;23.264;2023-03-05T05:32:23;93883.19;;;6.84;100.00
6345;BME280;3205;42.666;23.264;2023-03-05T05:34:53;93893.63;;;6.92;100.00
6345;BME280;3205;42.666;23.264;2023-03-05T05:37:19;93887.94;;;6.90;100.00
6345;BME280;3205;42.666;23.264;2023-03-05T05:39:45;93891.06;;;7.04;100.00
6345;BME280;3205;42.666;23.264;2023-03-05T05:42:14;93883.88;;;7.13;100.00
6345;BME280;3205;42.666;23.264;2023-03-05T05:44:40;93893.22;;;7.23;100.00
6345;BME280;3205;42.666;23.264;2023-03-05T05:47:07;93891.84;;;7.37;100.00
6345;BME280;3205;42.666;23.264;2023-03-05T05:49:33;93892.94;;;7.36;100.00
6345;BME280;3205;42.666;23.264;2023-03-05T05:51:59;93895.97;;;7.58;100.00
6345;BME280;3205;42.666;23.264;2023-03-05T05:54:26;93898.44;;;7.75;100.00
6345;BME280;3205;42.666;23.264;2023-03-05T05:56:52;93902.28;;;7.90;100.00
6345;BME280;3205;42.666;23.264;2023-03-05T05:59:18;93904.16;;;8.01;100.00
6345;BME280;3205;42.666;23.264;2023-03-05T06:01:44;93912.81;;;8.02;100.00
6345;BME280;3205;42.666;23.264;2023-03-05T06:04:11;93902.75;;;8.04;100.00
6345;BME280;3205;42.666;23.264;2023-03-05T06:06:37;93916.34;;;8.06;100.00
6345;BME280;3205;42.666;23.264;2023-03-05T06:09:03;93918.19;;;8.05;100.00
6345;BME280;3205;42.666;23.264;2023-03-05T06:11:29;93925.81;;;8.30;100.00
6345;BME280;3205;42.666;23.264;2023-03-05T06:13:56;93928.13;;;8.32;100.00
6345;BME280;3205;42.666;23.264;2023-03-05T06:16:23;93921.41;;;8.34;100.00
6345;BME280;3205;42.666;23.264;2023-03-05T06:18:51;93924.63;;;8.28;100.00
6345;BME280;3205;42.666;23.264;2023-03-05T06:21:19;93923.50;;;8.53;100.00
6345;BME280;3205;42.666;23.264;2023-03-05T06:23:46;93925.16;;;8.57;100.00
6345;BME280;3205;42.666;23.264;2023-03-05T06:26:14;93921.28;;;8.79;100.00
6345;BME280;3205;42.666;23.264;2023-03-05T06:28:41;93931.06;;;8.78;100.00
6345;BME280;3205;42.666;23.264;2023-03-05T06:31:08;93928.75;;;8.88;100.00
6345;BME280;3205;42.666;23.264;2023-03-05T06:33:35;93935.44;;;8.98;100.00
6345;BME280;3205;42.666;23.264;2023-03-05T06:36:02;93939.03;;;9.05;100.00
6345;BME280;3205;42.666;23.264;2023-03-05T06:38:29;93934.84;;;9.16;100.00
6345;BME280;3205;42.666;23.264;2023-03-05T06:40:59;93932.66;;;9.46;100.00
6345;BME280;3205;42.666;23.264;2023-03-05T06:43:25;93944.41;;;9.48;100.00
6345;BME280;3205;42.666;23.264;2023-03-05T06:46:00;93930.06;;;9.61;100.00
6345;BME280;3205;42.666;23.264;2023-03-05T06:48:26;93932.47;;;9.66;100.00
6345;BME280;3205;42.666;23.264;2023-03-05T06:50:53;93936.69;;;9.82;100.00
6345;BME280;3205;42.666;23.264;2023-03-05T06:53:19;93934.84;;;9.98;100.00
6345;BME280;3205;42.666;23.264;2023-03-05T06:55:45;93936.56;;;10.22;96.65
6345;BME280;3205;42.666;23.264;2023-03-05T06:58:11;93945.44;;;10.60;94.58
6345;BME280;3205;42.666;23.264;2023-03-05T07:00:38;93942.84;;;10.94;87.60
6345;BME280;3205;42.666;23.264;2023-03-05T07:03:04;93943.25;;;11.49;81.37
6345;BME280;3205;42.666;23.264;2023-03-05T07:05:30;93941.94;;;11.96;78.41
6345;BME280;3205;42.666;23.264;2023-03-05T07:07:56;93943.75;;;12.82;73.76
6345;BME280;3205;42.666;23.264;2023-03-05T07:10:22;93953.34;;;13.41;67.22
6345;BME280;3205;42.666;23.264;2023-03-05T07:12:49;93945.84;;;14.49;62.76
6345;BME280;3205;42.666;23.264;2023-03-05T07:15:15;93944.22;;;14.77;59.17
6345;BME280;3205;42.666;23.264;2023-03-05T07:17:41;93952.72;;;15.00;58.60
6345;BME280;3205;42.666;23.264;2023-03-05T07:20:09;93947.50;;;15.78;55.48
6345;BME280;3205;42.666;23.264;2023-03-05T07:22:36;93949.00;;;15.68;53.86
6345;BME280;3205;42.666;23.264;2023-03-05T07:25:03;93954.50;;;16.14;52.73
6345;BME280;3205;42.666;23.264;2023-03-05T07:27:29;93953.13;;;17.00;50.42
6345;BME280;3205;42.666;23.264;2023-03-05T07:29:55;93952.34;;;17.37;49.63
6345;BME280;3205;42.666;23.264;2023-03-05T07:32:21;93946.66;;;18.38;46.89
6345;BME280;3205;42.666;23.264;2023-03-05T07:34:47;93948.56;;;19.79;44.96
6345;BME280;3205;42.666;23.264;2023-03-05T07:37:14;93947.72;;;20.19;41.92
6345;BME280;3205;42.666;23.264;2023-03-05T07:39:40;93941.25;;;19.83;42.13
6345;BME280;3205;42.666;23.264;2023-03-05T07:42:06;93940.53;;;19.42;43.05
6345;BME280;3205;42.666;23.264;2023-03-05T07:44:33;93947.22;;;19.21;43.11
6345;BME280;3205;42.666;23.264;2023-03-05T07:46:59;93948.09;;;19.51;42.70
6345;BME280;3205;42.666;23.264;2023-03-05T07:49:26;93946.69;;;20.95;41.40
6345;BME280;3205;42.666;23.264;2023-03-05T07:51:52;93948.91;;;21.69;39.00
6345;BME280;3205;42.666;23.264;2023-03-05T07:54:18;93943.72;;;23.54;36.33
6345;BME280;3205;42.666;23.264;2023-03-05T07:56:44;93947.91;;;25.06;35.42
6345;BME280;3205;42.666;23.264;2023-03-05T07:59:12;93953.03;;;25.04;33.56
6345;BME280;3205;42.666;23.264;2023-03-05T08:01:38;93943.16;;;23.15;34.88
6345;BME280;3205;42.666;23.264;2023-03-05T08:04:05;93959.91;;;21.78;36.47
6345;BME280;3205;42.666;23.264;2023-03-05T08:06:32;93946.03;;;20.02;39.04
6345;BME280;3205;42.666;23.264;2023-03-05T08:08:58;93947.44;;;19.37;40.33
6345;BME280;3205;42.666;23.264;2023-03-05T08:11:34;93944.81;;;18.86;41.65
6345;BME280;3205;42.666;23.264;2023-03-05T08:14:02;93950.28;;;17.93;42.99
6345;BME280;3205;42.666;23.264;2023-03-05T08:16:28;93950.03;;;17.22;44.88
6345;BME280;3205;42.666;23.264;2023-03-05T08:18:56;93945.06;;;16.37;46.64
6345;BME280;3205;42.666;23.264;2023-03-05T08:21:25;93943.81;;;16.07;48.84
6345;BME280;3205;42.666;23.264;2023-03-05T08:23:53;93943.81;;;15.25;50.76
6345;BME280;3205;42.666;23.264;2023-03-05T08:26:21;93941.97;;;14.39;53.00
6345;BME280;3205;42.666;23.264;2023-03-05T08:28:52;93941.16;;;13.66;56.48
6345;BME280;3205;42.666;23.264;2023-03-05T08:31:24;93948.41;;;13.40;59.01
6345;BME280;3205;42.666;23.264;2023-03-05T08:33:54;93942.88;;;13.52;61.10
6345;BME280;3205;42.666;23.264;2023-03-05T08:36:22;93932.09;;;13.71;60.16
6345;BME280;3205;42.666;23.264;2023-03-05T08:38:48;93935.09;;;14.02;59.44
6345;BME280;3205;42.666;23.264;2023-03-05T08:41:16;93929.88;;;14.09;57.95
6345;BME280;3205;42.666;23.264;2023-03-05T08:43:43;93929.19;;;14.55;58.22
6345;BME280;3205;42.666;23.264;2023-03-05T08:46:10;93925.06;;;14.61;55.83
6345;BME280;3205;42.666;23.264;2023-03-05T08:48:36;93924.09;;;14.83;54.93
6345;BME280;3205;42.666;23.264;2023-03-05T08:51:08;93932.16;;;14.43;53.73
6345;BME280;3205;42.666;23.264;2023-03-05T08:53:35;93926.66;;;14.26;55.43
6345;BME280;3205;42.666;23.264;2023-03-05T08:56:03;93922.91;;;14.30;55.37
6345;BME280;3205;42.666;23.264;2023-03-05T08:58:29;93916.13;;;14.36;55.41
6345;BME280;3205;42.666;23.264;2023-03-05T09:00:55;93918.56;;;15.09;54.15
6345;BME280;3205;42.666;23.264;2023-03-05T09:03:22;93915.84;;;15.59;53.64
6345;BME280;3205;42.666;23.264;2023-03-05T09:05:48;93909.19;;;16.28;50.04
6345;BME280;3205;42.666;23.264;2023-03-05T09:08:16;93907.72;;;16.89;47.48
6345;BME280;3205;42.666;23.264;2023-03-05T09:10:43;93897.44;;;16.84;46.69
6345;BME280;3205;42.666;23.264;2023-03-05T09:13:10;93902.75;;;17.09;45.82
6345;BME280;3205;42.666;23.264;2023-03-05T09:15:37;93894.19;;;17.80;45.60
6345;BME280;3205;42.666;23.264;2023-03-05T09:18:03;93897.00;;;18.30;43.25
6345;BME280;3205;42.666;23.264;2023-03-05T09:20:30;93894.94;;;17.84;43.06
6345;BME280;3205;42.666;23.264;2023-03-05T09:22:57;93900.22;;;17.94;42.94
6345;BME280;3205;42.666;23.264;2023-03-05T09:25:23;93899.72;;;17.00;43.00
6345;BME280;3205;42.666;23.264;2023-03-05T09:27:50;93890.59;;;16.83;43.65
6345;BME280;3205;42.666;23.264;2023-03-05T09:30:16;93895.47;;;16.26;43.93
6345;BME280;3205;42.666;23.264;2023-03-05T09:32:43;93893.91;;;16.07;44.75
6345;BME280;3205;42.666;23.264;2023-03-05T09:35:09;93897.97;;;15.70;45.26
6345;BME280;3205;42.666;23.264;2023-03-05T09:37:35;93892.63;;;15.60;45.79
6345;BME280;3205;42.666;23.264;2023-03-05T09:40:03;93881.84;;;15.28;46.24
6345;BME280;3205;42.666;23.264;2023-03-05T09:42:42;93883.63;;;15.17;46.50
6345;BME280;3205;42.666;23.264;2023-03-05T09:45:16;93879.50;;;15.23;47.37
6345;BME280;3205;42.666;23.264;2023-03-05T09:47:51;93877.09;;;15.86;46.86
6345;BME280;3205;42.666;23.264;2023-03-05T09:50:29;93868.72;;;17.47;43.48
6345;BME280;3205;42.666;23.264;2023-03-05T09:53:01;93865.78;;;18.64;40.97
6345;BME280;3205;42.666;23.264;2023-03-05T09:55:32;93873.31;;;18.79;39.49
6345;BME280;3205;42.666;23.264;2023-03-05T09:58:04;93862.94;;;19.29;39.58
6345;BME280;3205;42.666;23.264;2023-03-05T10:00:35;93864.84;;;19.28;39.16
6345;BME280;3205;42.666;23.264;2023-03-05T10:03:06;93858.91;;;19.07;39.13
6345;BME280;3205;42.666;23.264;2023-03-05T10:05:48;93862.06;;;18.98;38.49
6345;BME280;3205;42.666;23.264;2023-03-05T10:08:20;93856.31;;;18.53;39.42
6345;BME280;3205;42.666;23.264;2023-03-05T10:10:51;93851.94;;;18.25;39.97
6345;BME280;3205;42.666;23.264;2023-03-05T10:13:21;93849.75;;;18.03;39.99
6345;BME280;3205;42.666;23.264;2023-03-05T10:15:56;93851.38;;;17.90;39.83
6345;BME280;3205;42.666;23.264;2023-03-05T10:18:32;93859.50;;;17.66;39.79
6345;BME280;3205;42.666;23.264;2023-03-05T10:21:00;93849.75;;;16.93;40.99
6345;BME280;3205;42.666;23.264;2023-03-05T10:23:43;93845.63;;;16.54;41.36
6345;BME280;3205;42.666;23.264;2023-03-05T10:26:30;93844.06;;;16.70;41.92
6345;BME280;3205;42.666;23.264;2023-03-05T10:29:21;93838.75;;;16.53;41.70
6345;BME280;3205;42.666;23.264;2023-03-05T10:31:59;93836.06;;;16.56;41.57
6345;BME280;3205;42.666;23.264;2023-03-05T10:34:40;93822.72;;;16.77;41.28
6345;BME280;3205;42.666;23.264;2023-03-05T10:37:21;93823.88;;;16.48;41.98
6345;BME280;3205;42.666;23.264;2023-03-05T10:40:11;93813.97;;;16.35;41.85
6345;BME280;3205;42.666;23.264;2023-03-05T10:42:47;93815.09;;;16.06;42.94
6345;BME280;3205;42.666;23.264;2023-03-05T10:45:20;93806.28;;;15.81;43.71
6345;BME280;3205;42.666;23.264;2023-03-05T10:47:50;93804.38;;;15.78;44.14
6345;BME280;3205;42.666;23.264;2023-03-05T10:50:21;93809.28;;;15.59;44.08
6345;BME280;3205;42.666;23.264;2023-03-05T10:52:53;93805.47;;;15.60;44.30
6345;BME280;3205;42.666;23.264;2023-03-05T10:55:24;93792.06;;;15.32;43.47
6345;BME280;3205;42.666;23.264;2023-03-05T10:57:50;93799.44;;;14.88;44.20
6345;BME280;3205;42.666;23.264;2023-03-05T11:00:19;93801.03;;;15.00;44.83
6345;BME280;3205;42.666;23.264;2023-03-05T11:02:58;93786.09;;;14.75;44.74
6345;BME280;3205;42.666;23.264;2023-03-05T11:05:46;93789.19;;;14.90;44.08
6345;BME280;3205;42.666;23.264;2023-03-05T11:08:24;93780.06;;;14.91;44.63
6345;BME280;3205;42.666;23.264;2023-03-05T11:11:12;93781.09;;;14.70;44.88
6345;BME280;3205;42.666;23.264;2023-03-05T11:13:43;93769.19;;;14.46;46.06
6345;BME280;3205;42.666;23.264;2023-03-05T11:16:16;93769.94;;;14.43;46.33
6345;BME280;3205;42.666;23.264;2023-03-05T11:18:44;93766.16;;;14.51;46.75
6345;BME280;3205;42.666;23.264;2023-03-05T11:21:18;93760.97;;;14.11;46.94
6345;BME280;3205;42.666;23.264;2023-03-05T11:24:03;93763.22;;;14.09;48.99
6345;BME280;3205;42.666;23.264;2023-03-05T11:26:29;93768.41;;;13.96;49.62
6345;BME280;3205;42.666;23.264;2023-03-05T11:28:57;93758.72;;;14.13;48.97
6345;BME280;3205;42.666;23.264;2023-03-05T11:31:25;93757.88;;;14.06;48.58
6345;BME280;3205;42.666;23.264;2023-03-05T11:33:55;93754.38;;;13.55;49.56
6345;BME280;3205;42.666;23.264;2023-03-05T11:36:24;93753.75;;;13.69;50.17
6345;BME280;3205;42.666;23.264;2023-03-05T11:38:53;93747.28;;;13.66;50.06
6345;BME280;3205;42.666;23.264;2023-03-05T11:41:24;93745.72;;;14.05;50.51
6345;BME280;3205;42.666;23.264;2023-03-05T11:43:52;93737.41;;;14.10;49.57
6345;BME280;3205;42.666;23.264;2023-03-05T11:46:19;93739.47;;;14.30;49.45
6345;BME280;3205;42.666;23.264;2023-03-05T11:48:46;93725.88;;;14.46;49.11
6345;BME280;3205;42.666;23.264;2023-03-05T11:51:18;93725.41;;;14.33;49.35
6345;BME280;3205;42.666;23.264;2023-03-05T11:53:46;93720.53;;;14.42;49.28
6345;BME280;3205;42.666;23.264;2023-03-05T11:56:19;93720.00;;;14.19;48.44
6345;BME280;3205;42.666;23.264;2023-03-05T11:58:49;93713.03;;;14.01;49.10
6345;BME280;3205;42.666;23.264;2023-03-05T12:01:19;93715.81;;;14.15;49.23
6345;BME280;3205;42.666;23.264;2023-03-05T12:03:46;93694.25;;;13.80;49.31
6345;BME280;3205;42.666;23.264;2023-03-05T12:06:17;93701.47;;;13.80;50.13
6345;BME280;3205;42.666;23.264;2023-03-05T12:08:50;93697.00;;;13.91;49.82
6345;BME280;3205;42.666;23.264;2023-03-05T12:11:21;93693.91;;;13.82;50.03
6345;BME280;3205;42.666;23.264;2023-03-05T12:13:51;93695.19;;;13.51;51.43
6345;BME280;3205;42.666;23.264;2023-03-05T12:16:25;93690.91;;;13.40;53.75
6345;BME280;3205;42.666;23.264;2023-03-05T12:19:03;93684.53;;;13.48;52.79
6345;BME280;3205;42.666;23.264;2023-03-05T12:21:37;93681.56;;;13.56;52.65
6345;BME280;3205;42.666;23.264;2023-03-05T12:27:13;93673.03;;;13.37;52.99
6345;BME280;3205;42.666;23.264;2023-03-05T12:29:46;93674.13;;;13.32;52.69
6345;BME280;3205;42.666;23.264;2023-03-05T12:35:25;93662.31;;;13.66;51.49
6345;BME280;3205;42.666;23.264;2023-03-05T12:40:47;93658.56;;;13.74;52.33
6345;BME280;3205;42.666;23.264;2023-03-05T12:43:29;93654.78;;;13.75;51.09
6345;BME280;3205;42.666;23.264;2023-03-05T12:46:23;93649.59;;;13.93;51.20
6345;BME280;3205;42.666;23.264;2023-03-05T12:48:50;93656.13;;;14.06;50.22
6345;BME280;3205;42.666;23.264;2023-03-05T12:51:34;93644.44;;;13.63;49.35
6345;BME280;3205;42.666;23.264;2023-03-05T12:54:28;93632.22;;;13.52;50.15
6345;BME280;3205;42.666;23.264;2023-03-05T12:56:56;93634.94;;;13.62;49.97
6345;BME280;3205;42.666;23.264;2023-03-05T12:59:28;93635.00;;;13.69;50.98
6345;BME280;3205;42.666;23.264;2023-03-05T13:01:59;93631.03;;;13.46;50.01
6345;BME280;3205;42.666;23.264;2023-03-05T13:04:28;93644.38;;;13.10;51.12
6345;BME280;3205;42.666;23.264;2023-03-05T13:06:58;93635.25;;;13.07;51.42
6345;BME280;3205;42.666;23.264;2023-03-05T13:09:27;93636.44;;;13.13;52.34
6345;BME280;3205;42.666;23.264;2023-03-05T13:11:56;93637.91;;;13.07;52.70
6345;BME280;3205;42.666;23.264;2023-03-05T13:14:35;93631.38;;;12.98;52.91
6345;BME280;3205;42.666;23.264;2023-03-05T13:17:17;93623.47;;;13.01;52.25
6345;BME280;3205;42.666;23.264;2023-03-05T13:19:48;93623.75;;;12.96;52.68
6345;BME280;3205;42.666;23.264;2023-03-05T13:22:14;93621.81;;;12.90;52.46
6345;BME280;3205;42.666;23.264;2023-03-05T13:24:42;93632.06;;;12.91;52.86
6345;BME280;3205;42.666;23.264;2023-03-05T13:27:23;93631.47;;;12.75;52.69